Pineland, FL

12:36 AM EST on November 24, 2014 (GMT -0500)
Pine Island | Change Station
CLOSE
Current Station
Personal Weather Station
Location: Bokeelia, FL
Elevation: 26 ft
Nearby Weather Stations

Elev 26 ft 26.68 °N, 82.15 °W | Updated 13 minutes ago

Mostly Cloudy
Mostly Cloudy
72.7 °F
Feels Like 72.7 °F
N
1.1
Wind Variable Wind from ESE

Today
High -- | Low -- °F
--% Chance of Precip.
Yesterday
High -- | Low -- °F
Precip. -- in
6:54 AM 5:35 PM
Waxing Crescent, 4% visible
Pressure 29.95 in
Visibility 10.0 miles
Clouds Few 1400 ft
Dew Point 70 °F
Humidity 91%
Rainfall 0.00 in
Snow Depth Not available.
UV 0 out of 12
Pollen .60 out of 12
Air Quality Not available.
Flu Activity Not available.
METAR KFMY 240453Z AUTO 00000KT 10SM FEW014 24/23 A2994 RMK AO2 SLP140 T02390228 403000217

More Conditions Fewer Conditions

Pressure 29.95 in
Visibility 10.0 miles
Clouds Few 1400 ft
Dew Point 70 °F
Humidity 91%
Rainfall 0.00 in
Snow Depth Not available.
UV 0 out of 12
Pollen .60 out of 12
Air Quality Not available.
Flu Activity Not available.
METAR KFMY 240453Z AUTO 00000KT 10SM FEW014 24/23 A2994 RMK AO2 SLP140 T02390228 403000217

More Conditions Fewer Conditions

10-Day Weather Forecast

Almanac

Astronomy

Nov. 24, 2014 Rise Set
Actual Time
Civil Twilight
Nautical Twilight
Astronomical Twilight
Moon
Length of Visible Light
Length of Day
Tomorrow will be .
, % of the Moon is Illuminated

Today's Extremes

State Highs State Lows

Community

WunderPhotos

Upload Photos

1,773,279 photos uploaded!

WunderBlogs® & News

Nearby

Air Quality

  Air Quality AQ Index Pollutant
Not available.

Snow Depth

Station Depth Elevation

Earthquake Activity

City Distance Mag. Time & Date
Minimum magnitude displayed is 2.5.

Coastal Water Temperatures

Place Temperature

Nearby Weather Stations